createdAt,value
2018-04-18T00:01:53.763Z,99.90
2018-04-18T00:04:28.594Z,99.90
2018-04-18T00:07:03.627Z,99.90
2018-04-18T00:12:20.053Z,99.90
2018-04-18T00:14:56.055Z,99.90
2018-04-18T00:17:31.551Z,99.90
2018-04-18T00:20:06.995Z,99.90
2018-04-18T00:22:42.850Z,99.90
2018-04-18T00:25:17.822Z,99.90
2018-04-18T00:27:52.722Z,99.90
2018-04-18T00:30:27.897Z,99.90
2018-04-18T00:33:02.691Z,99.90
2018-04-18T00:35:37.928Z,99.90
2018-04-18T00:38:13.612Z,99.90
2018-04-18T00:40:49.059Z,99.90
2018-04-18T00:43:25.183Z,99.90
2018-04-18T00:46:00.627Z,99.90
2018-04-18T00:48:35.665Z,99.90
2018-04-18T00:51:10.900Z,99.90
2018-04-18T00:53:45.941Z,99.90
2018-04-18T00:56:20.869Z,99.90
2018-04-18T00:58:56.216Z,99.90
2018-04-18T01:01:32.000Z,99.90
2018-04-18T01:04:08.128Z,99.90
2018-04-18T01:06:43.366Z,99.90
2018-04-18T01:09:18.812Z,99.90
2018-04-18T01:11:54.255Z,99.90
2018-04-18T01:14:29.437Z,99.90
2018-04-18T01:17:05.145Z,99.90
2018-04-18T01:19:40.387Z,99.90
2018-04-18T01:22:15.831Z,99.90
2018-04-18T01:24:51.208Z,99.90
2018-04-18T01:27:26.658Z,99.90
2018-04-18T01:30:02.305Z,99.90
2018-04-18T01:32:37.201Z,99.90
2018-04-18T01:35:13.462Z,99.90
2018-04-18T01:37:48.908Z,99.90
2018-04-18T01:40:23.942Z,99.90
2018-04-18T01:42:59.120Z,99.90
2018-04-18T01:45:34.425Z,99.90
2018-04-18T01:48:09.664Z,99.90
2018-04-18T01:50:45.010Z,99.90
2018-04-18T01:53:19.938Z,99.90
2018-04-18T01:55:54.978Z,99.90
2018-04-18T01:58:29.801Z,99.90
2018-04-18T02:01:05.248Z,99.90
2018-04-18T02:03:41.104Z,99.90
2018-04-18T02:06:16.869Z,99.90
2018-04-18T02:08:52.092Z,99.90
2018-04-18T02:11:27.950Z,99.90
2018-04-18T02:14:02.982Z,99.90
2018-04-18T02:16:37.817Z,99.90
2018-04-18T02:19:12.847Z,99.90
2018-04-18T02:21:48.292Z,99.90
2018-04-18T02:24:23.636Z,99.90
2018-04-18T02:26:58.463Z,99.90
2018-04-18T02:29:33.501Z,99.90
2018-04-18T02:32:08.969Z,99.90
2018-04-18T02:34:44.388Z,99.90
2018-04-18T02:37:20.243Z,99.90
2018-04-18T02:39:55.686Z,99.90
2018-04-18T02:42:31.745Z,99.90
2018-04-18T02:45:14.152Z,99.90
2018-04-18T02:47:49.803Z,99.90
2018-04-18T02:50:24.837Z,99.90
2018-04-18T02:52:59.668Z,99.90
2018-04-18T02:55:34.910Z,99.90
2018-04-18T02:58:09.738Z,99.90
2018-04-18T03:00:44.779Z,99.90
2018-04-18T03:03:20.149Z,99.90
2018-04-18T03:05:55.051Z,99.90
2018-04-18T03:08:29.878Z,99.90
2018-04-18T03:11:05.017Z,99.90
2018-04-18T03:13:39.949Z,99.90
2018-04-18T03:16:14.884Z,99.90
2018-04-18T03:18:49.919Z,99.90
2018-04-18T03:21:25.155Z,99.90
2018-04-18T03:24:00.815Z,99.90
2018-04-18T03:26:35.454Z,99.90
2018-04-18T03:29:10.883Z,99.90
2018-04-18T03:31:46.116Z,99.90
2018-04-18T03:34:21.768Z,99.90
2018-04-18T03:36:56.600Z,99.90
2018-04-18T03:39:32.051Z,99.90
2018-04-18T03:42:09.036Z,99.90
2018-04-18T03:44:44.365Z,99.90
2018-04-18T03:47:21.593Z,99.90
2018-04-18T03:49:57.097Z,99.90
2018-04-18T03:52:32.759Z,99.90
2018-04-18T03:55:07.786Z,99.90
2018-04-18T03:57:42.715Z,99.90
2018-04-18T04:00:17.752Z,99.90
2018-04-18T04:02:53.030Z,99.90
2018-04-18T04:05:28.131Z,99.90
2018-04-18T04:08:03.169Z,99.90
2018-04-18T04:10:38.812Z,99.90
2018-04-18T04:13:13.862Z,99.90
2018-04-18T04:15:48.885Z,99.90
2018-04-18T04:18:35.594Z,99.90
2018-04-18T04:21:22.626Z,99.90
2018-04-18T04:24:09.828Z,99.90
2018-04-18T04:26:44.967Z,99.90
2018-04-18T04:29:20.004Z,99.90
2018-04-18T04:31:55.242Z,99.90
2018-04-18T04:34:30.686Z,99.90
2018-04-18T04:37:05.772Z,99.90
2018-04-18T04:39:40.757Z,99.90
2018-04-18T04:42:15.997Z,99.90
2018-04-18T04:44:52.300Z,99.90
2018-04-18T04:47:27.092Z,99.90
2018-04-18T04:50:02.740Z,99.90
2018-04-18T04:52:37.775Z,99.90
2018-04-18T04:55:13.015Z,99.90
2018-04-18T04:57:48.062Z,99.90
2018-04-18T05:00:23.700Z,99.90
2018-04-18T05:02:58.735Z,99.90
2018-04-18T05:05:34.625Z,99.90
2018-04-18T05:08:10.135Z,99.90
2018-04-18T05:10:46.142Z,99.90
2018-04-18T05:13:21.339Z,99.90
2018-04-18T05:15:56.415Z,99.90
2018-04-18T05:18:32.230Z,99.90
2018-04-18T05:21:07.271Z,99.90
2018-04-18T05:23:43.017Z,99.90
2018-04-18T05:26:18.863Z,99.90
2018-04-18T05:28:54.210Z,99.90
2018-04-18T05:31:29.450Z,99.90
2018-04-18T05:34:04.381Z,99.90
2018-04-18T05:36:39.422Z,99.90
2018-04-18T05:39:14.249Z,99.90
2018-04-18T05:41:49.284Z,99.90
2018-04-18T05:44:24.139Z,99.90
2018-04-18T05:46:59.763Z,99.90
2018-04-18T05:49:35.003Z,99.90
2018-04-18T05:52:10.754Z,99.90
2018-04-18T05:54:45.991Z,99.90
2018-04-18T05:57:21.303Z,99.90
2018-04-18T05:59:56.723Z,99.90
2018-04-18T06:02:32.027Z,99.90
2018-04-18T06:05:07.055Z,99.90
2018-04-18T06:07:42.922Z,99.90
2018-04-18T06:10:20.009Z,99.90
2018-04-18T06:12:55.388Z,99.90
2018-04-18T06:15:30.886Z,99.90
2018-04-18T06:18:06.330Z,99.90
2018-04-18T06:20:41.168Z,99.90
2018-04-18T06:23:16.400Z,99.90
2018-04-18T06:25:51.658Z,99.90
2018-04-18T06:28:26.672Z,99.90
2018-04-18T06:31:02.527Z,99.90
2018-04-18T06:33:37.777Z,99.90
2018-04-18T06:36:12.598Z,99.90
2018-04-18T06:38:47.839Z,99.90
2018-04-18T06:41:23.488Z,99.90
2018-04-18T06:43:58.731Z,99.90
2018-04-18T06:46:34.578Z,99.90
2018-04-18T06:49:10.229Z,99.90
2018-04-18T06:51:45.414Z,99.90
2018-04-18T06:54:20.914Z,99.90
2018-04-18T06:56:55.949Z,99.90
2018-04-18T06:59:31.701Z,99.90
2018-04-18T07:02:07.146Z,99.90
2018-04-18T07:04:42.386Z,99.90
2018-04-18T07:07:18.035Z,99.90
2018-04-18T07:09:53.073Z,99.90
2018-04-18T07:12:27.797Z,99.90
2018-04-18T07:15:03.242Z,99.90
2018-04-18T07:17:38.288Z,99.90
2018-04-18T07:20:13.740Z,99.90
2018-04-18T07:22:49.578Z,99.90
2018-04-18T07:25:24.509Z,99.50
2018-04-18T07:28:01.188Z,98.70
2018-04-18T07:30:36.423Z,98.60
2018-04-18T07:33:11.256Z,98.10
2018-04-18T07:35:46.292Z,97.20
2018-04-18T07:38:21.222Z,94.80
2018-04-18T07:40:56.233Z,95.20
2018-04-18T07:43:31.087Z,94.00
2018-04-18T07:46:06.125Z,91.60
2018-04-18T07:48:41.161Z,88.30
2018-04-18T07:51:16.332Z,81.90
2018-04-18T07:53:51.642Z,78.10
2018-04-18T07:56:27.391Z,74.30
2018-04-18T07:59:02.429Z,73.30
2018-04-18T08:01:37.674Z,70.50
2018-04-18T08:04:12.701Z,67.50
2018-04-18T08:06:48.149Z,67.20
2018-04-18T08:09:23.794Z,64.70
2018-04-18T08:11:59.035Z,60.70
2018-04-18T08:14:34.487Z,59.30
2018-04-18T08:17:10.335Z,58.30
2018-04-18T08:19:45.989Z,55.80
2018-04-18T08:22:21.225Z,54.10
2018-04-18T08:24:56.364Z,54.50
2018-04-18T08:27:31.557Z,54.10
2018-04-18T08:30:06.838Z,52.80
2018-04-18T08:32:41.604Z,51.70
2018-04-18T08:35:16.602Z,51.00
2018-04-18T08:37:52.259Z,50.20
2018-04-18T08:40:27.495Z,50.50
2018-04-18T08:43:02.733Z,51.20
2018-04-18T08:45:38.381Z,50.40
2018-04-18T08:48:13.417Z,49.70
2018-04-18T08:50:48.349Z,49.30
2018-04-18T08:53:23.606Z,49.40
2018-04-18T08:55:59.340Z,49.10
2018-04-18T08:58:34.791Z,48.50
2018-04-18T09:01:09.821Z,49.10
2018-04-18T09:03:44.959Z,50.30
2018-04-18T09:06:20.402Z,52.70
2018-04-18T09:08:55.952Z,53.30
2018-04-18T09:11:31.191Z,54.40
2018-04-18T09:14:07.053Z,56.50
2018-04-18T09:16:42.079Z,56.50
2018-04-18T09:19:17.324Z,58.30
2018-04-18T09:21:52.352Z,59.00
2018-04-18T09:24:27.596Z,58.90
2018-04-18T09:27:02.838Z,58.50
2018-04-18T09:29:38.688Z,58.40
2018-04-18T09:32:13.726Z,59.40
2018-04-18T09:34:48.763Z,58.60
2018-04-18T09:37:24.507Z,58.50
2018-04-18T09:39:59.339Z,59.30
2018-04-18T09:42:34.786Z,58.70
2018-04-18T09:45:10.463Z,59.60
2018-04-18T09:47:46.495Z,60.50
2018-04-18T09:50:22.349Z,60.40
2018-04-18T09:52:58.340Z,60.00
2018-04-18T09:55:35.284Z,60.80
2018-04-18T09:58:10.525Z,60.70
2018-04-18T10:00:51.093Z,60.20
2018-04-18T10:03:26.336Z,60.70
2018-04-18T10:06:01.575Z,61.30
2018-04-18T10:08:36.612Z,60.60
2018-04-18T10:11:11.640Z,61.10
2018-04-18T10:13:47.494Z,61.60
2018-04-18T10:16:23.860Z,61.40
2018-04-18T10:18:59.510Z,61.40
2018-04-18T10:21:34.751Z,62.30
2018-04-18T10:24:12.140Z,63.40
2018-04-18T10:26:48.595Z,63.60
2018-04-18T10:29:23.644Z,63.60
2018-04-18T10:31:58.679Z,64.00
2018-04-18T10:34:33.911Z,63.90
2018-04-18T10:37:09.166Z,63.20
2018-04-18T10:39:44.706Z,62.50
2018-04-18T10:42:20.150Z,63.00
2018-04-18T10:44:55.328Z,63.30
2018-04-18T10:47:30.221Z,63.20
2018-04-18T10:50:05.461Z,62.80
2018-04-18T10:52:40.904Z,60.80
2018-04-18T10:55:16.147Z,57.50
2018-04-18T10:57:51.796Z,54.90
2018-04-18T11:00:27.036Z,52.40
2018-04-18T11:03:03.298Z,49.20
2018-04-18T11:05:38.591Z,48.70
2018-04-18T11:08:13.577Z,46.60
2018-04-18T11:10:49.632Z,47.10
2018-04-18T11:13:26.525Z,46.90
2018-04-18T11:16:02.159Z,46.90
2018-04-18T11:18:36.943Z,46.50
2018-04-18T11:21:12.036Z,46.50
2018-04-18T11:23:47.066Z,44.90
2018-04-18T11:26:22.096Z,44.90
2018-04-18T11:28:57.135Z,43.90
2018-04-18T11:31:31.974Z,44.00
2018-04-18T11:34:06.998Z,43.80
2018-04-18T11:36:42.865Z,43.50
2018-04-18T11:39:17.681Z,43.90
2018-04-18T11:41:52.653Z,43.10
2018-04-18T11:44:28.162Z,41.90
2018-04-18T11:47:02.996Z,41.20
2018-04-18T11:49:38.133Z,39.20
2018-04-18T11:52:12.959Z,39.20
2018-04-18T11:54:48.000Z,39.00
2018-04-18T11:57:23.233Z,38.30
2018-04-18T11:59:58.274Z,38.10
2018-04-18T12:02:33.108Z,37.70
2018-04-18T12:05:08.545Z,37.40
2018-04-18T12:07:43.710Z,37.20
2018-04-18T12:10:19.255Z,35.60
2018-04-18T12:12:55.289Z,36.50
2018-04-18T12:15:31.089Z,36.20
2018-04-18T12:18:06.956Z,37.60
2018-04-18T12:20:42.290Z,37.60
2018-04-18T12:23:17.009Z,36.70
2018-04-18T12:25:52.870Z,36.80
2018-04-18T12:28:27.855Z,36.80
2018-04-18T12:31:03.713Z,36.00
2018-04-18T12:33:39.374Z,36.50
2018-04-18T12:36:14.392Z,36.60
2018-04-18T12:38:49.431Z,36.50
2018-04-18T12:41:24.470Z,36.40
2018-04-18T12:43:59.548Z,36.00
2018-04-18T12:46:34.536Z,37.00
2018-04-18T12:49:09.670Z,38.70
2018-04-18T12:51:45.644Z,39.90
2018-04-18T12:54:21.438Z,40.10
2018-04-18T12:56:56.998Z,40.60
2018-04-18T12:59:32.291Z,40.30
2018-04-18T13:02:07.635Z,40.00
2018-04-18T13:04:42.761Z,39.50
2018-04-18T13:07:17.985Z,39.90
2018-04-18T13:09:53.545Z,40.10
2018-04-18T13:12:28.990Z,39.90
2018-04-18T13:15:04.662Z,41.30
2018-04-18T13:17:39.981Z,41.30
2018-04-18T13:20:15.417Z,41.30
2018-04-18T13:22:50.655Z,40.30
2018-04-18T13:25:26.154Z,38.30
2018-04-18T13:28:01.607Z,37.40
2018-04-18T13:30:37.607Z,37.70
2018-04-18T13:33:13.564Z,39.50
2018-04-18T13:35:49.775Z,42.60
2018-04-18T13:38:25.781Z,44.90
2018-04-18T13:41:02.477Z,48.10
2018-04-18T13:43:38.049Z,48.10
2018-04-18T13:46:13.147Z,50.70
2018-04-18T13:48:49.046Z,49.70
2018-04-18T13:51:23.995Z,51.10
2018-04-18T13:54:00.298Z,51.60
2018-04-18T13:56:36.353Z,52.90
2018-04-18T13:59:12.411Z,53.20
2018-04-18T14:01:48.266Z,53.90
2018-04-18T14:04:24.328Z,54.90
2018-04-18T14:06:59.366Z,55.10
2018-04-18T14:09:34.928Z,55.50
2018-04-18T14:12:10.660Z,55.20
2018-04-18T14:14:45.867Z,55.60
2018-04-18T14:17:21.753Z,57.00
2018-04-18T14:19:57.814Z,57.30
2018-04-18T14:22:33.870Z,56.60
2018-04-18T14:25:09.112Z,56.70
2018-04-18T14:27:44.354Z,56.90
2018-04-18T14:30:19.857Z,57.50
2018-04-18T14:32:54.934Z,57.30
2018-04-18T14:35:30.384Z,57.10
2018-04-18T14:38:05.385Z,57.60
2018-04-18T14:40:40.245Z,57.70
2018-04-18T14:43:15.285Z,57.50
2018-04-18T14:45:50.981Z,58.00
2018-04-18T14:48:27.397Z,58.90
2018-04-18T14:51:02.848Z,58.90
2018-04-18T14:53:38.491Z,59.60
2018-04-18T14:56:13.424Z,59.90
2018-04-18T14:58:48.667Z,59.60
2018-04-18T15:01:23.698Z,59.50
2018-04-18T15:03:59.353Z,59.30
2018-04-18T15:06:34.283Z,59.20
2018-04-18T15:09:09.520Z,59.60
2018-04-18T15:11:44.351Z,60.30
2018-04-18T15:14:19.595Z,60.50
2018-04-18T15:16:54.628Z,60.60
2018-04-18T15:19:29.813Z,60.90
2018-04-18T15:22:04.900Z,60.30
2018-04-18T15:24:40.148Z,60.80
2018-04-18T15:27:15.974Z,61.10
2018-04-18T15:29:51.649Z,61.50
2018-04-18T15:32:27.095Z,60.80
2018-04-18T15:35:02.140Z,60.70
2018-04-18T15:37:37.471Z,61.00
2018-04-18T15:40:13.327Z,61.20
2018-04-18T15:42:48.770Z,61.40
2018-04-18T15:45:24.017Z,61.60
2018-04-18T15:47:59.309Z,62.10
2018-04-18T15:50:35.109Z,62.30
2018-04-18T15:53:10.557Z,62.30
2018-04-18T15:55:46.094Z,62.80
2018-04-18T15:58:21.231Z,63.10
2018-04-18T16:00:56.270Z,63.60
2018-04-18T16:03:32.740Z,63.90
2018-04-18T16:06:07.693Z,64.30
2018-04-18T16:08:43.226Z,64.90
2018-04-18T16:11:18.455Z,64.90
2018-04-18T16:13:53.983Z,64.70
2018-04-18T16:16:29.605Z,64.70
2018-04-18T16:19:04.482Z,64.10
2018-04-18T16:21:39.517Z,64.10
2018-04-18T16:24:15.576Z,64.60
2018-04-18T16:26:51.241Z,65.00
2018-04-18T16:29:38.196Z,65.40
2018-04-18T16:32:13.865Z,65.70
2018-04-18T16:34:49.539Z,66.30
2018-04-18T16:37:24.506Z,66.70
2018-04-18T16:39:59.417Z,67.10
2018-04-18T16:42:36.288Z,67.40
2018-04-18T16:45:11.724Z,67.30
2018-04-18T16:47:47.996Z,68.00
2018-04-18T16:50:23.443Z,67.90
2018-04-18T16:52:58.502Z,68.40
2018-04-18T16:55:35.384Z,68.60
2018-04-18T16:58:11.001Z,68.40
2018-04-18T17:00:46.566Z,68.80
2018-04-18T17:03:21.893Z,69.50
2018-04-18T17:05:57.149Z,69.30
2018-04-18T17:08:33.419Z,69.60
2018-04-18T17:11:08.840Z,69.90
2018-04-18T17:13:43.885Z,70.10
2018-04-18T17:16:19.526Z,70.10
2018-04-18T17:18:54.358Z,70.30
2018-04-18T17:21:29.619Z,70.80
2018-04-18T17:24:04.643Z,70.80
2018-04-18T17:26:39.974Z,70.70
2018-04-18T17:29:16.417Z,71.00
2018-04-18T17:31:52.193Z,70.70
2018-04-18T17:34:28.061Z,70.20
2018-04-18T17:37:06.604Z,69.70
2018-04-18T17:39:42.109Z,69.60
2018-04-18T17:42:17.517Z,69.40
2018-04-18T17:44:52.540Z,69.90
2018-04-18T17:47:28.037Z,70.30
2018-04-18T17:50:03.695Z,70.20
2018-04-18T17:52:38.725Z,70.80
2018-04-18T17:55:13.966Z,70.60
2018-04-18T17:57:49.416Z,71.00
2018-04-18T18:00:24.656Z,70.60
2018-04-18T18:02:59.683Z,71.10
2018-04-18T18:05:34.539Z,70.20
2018-04-18T18:08:09.551Z,70.60
2018-04-18T18:10:44.895Z,71.30
2018-04-18T18:13:20.129Z,70.90
2018-04-18T18:15:55.729Z,71.40
2018-04-18T18:18:31.533Z,72.30
2018-04-18T18:21:06.774Z,71.50
2018-04-18T18:23:41.989Z,72.10
2018-04-18T18:26:17.864Z,72.70
2018-04-18T18:28:52.900Z,73.00
2018-04-18T18:31:27.937Z,73.30
2018-04-18T18:34:02.907Z,73.20
2018-04-18T18:36:39.744Z,73.70
2018-04-18T18:39:14.778Z,73.60
2018-04-18T18:41:50.075Z,73.80
2018-04-18T18:44:25.055Z,74.40
2018-04-18T18:47:00.089Z,74.90
2018-04-18T18:49:35.741Z,75.40
2018-04-18T18:52:10.976Z,75.40
2018-04-18T18:54:47.650Z,75.70
2018-04-18T18:57:24.120Z,75.80
2018-04-18T18:59:59.088Z,75.80
2018-04-18T19:02:35.931Z,76.90
2018-04-18T19:05:11.170Z,76.90
2018-04-18T19:07:46.208Z,77.30
2018-04-18T19:10:21.663Z,77.60
2018-04-18T19:12:57.306Z,78.40
2018-04-18T19:15:33.841Z,78.40
2018-04-18T19:18:09.399Z,78.60
2018-04-18T19:20:44.763Z,79.20
2018-04-18T19:23:20.416Z,79.20
2018-04-18T19:25:56.859Z,79.60
2018-04-18T19:28:36.777Z,80.30
2018-04-18T19:31:11.968Z,80.20
2018-04-18T19:33:47.414Z,79.50
2018-04-18T19:36:23.679Z,79.90
2018-04-18T19:38:59.329Z,80.80
2018-04-18T19:41:34.480Z,80.20
2018-04-18T19:44:09.498Z,80.20
2018-04-18T19:46:44.945Z,80.30
2018-04-18T19:49:20.545Z,81.00
2018-04-18T19:51:56.036Z,80.80
2018-04-18T19:54:30.867Z,80.70
2018-04-18T19:57:05.861Z,80.70
2018-04-18T19:59:41.082Z,80.40
2018-04-18T20:02:15.983Z,80.20
2018-04-18T20:04:51.419Z,79.20
2018-04-18T20:07:26.451Z,78.70
2018-04-18T20:10:02.307Z,78.30
2018-04-18T20:12:37.349Z,77.80
2018-04-18T20:15:12.380Z,77.50
2018-04-18T20:17:47.652Z,76.70
2018-04-18T20:20:22.655Z,76.40
2018-04-18T20:22:58.033Z,76.20
2018-04-18T20:25:33.706Z,74.80
2018-04-18T20:28:09.471Z,74.60
2018-04-18T20:30:45.456Z,74.60
2018-04-18T20:33:20.291Z,74.60
2018-04-18T20:35:55.513Z,75.10
2018-04-18T20:38:30.630Z,75.70
2018-04-18T20:41:05.494Z,75.90
2018-04-18T20:43:40.325Z,76.40
2018-04-18T20:46:14.949Z,76.60
2018-04-18T20:48:50.187Z,77.00
2018-04-18T20:51:26.253Z,77.30
2018-04-18T20:54:01.896Z,77.30
2018-04-18T20:56:38.571Z,77.70
2018-04-18T20:59:13.809Z,77.70
2018-04-18T21:01:48.851Z,77.60
2018-04-18T21:04:23.879Z,77.70
2018-04-18T21:06:59.539Z,77.70
2018-04-18T21:09:35.384Z,77.30
2018-04-18T21:12:10.213Z,77.30
2018-04-18T21:14:45.045Z,76.80
2018-04-18T21:17:20.700Z,76.80
2018-04-18T21:19:56.654Z,76.80
2018-04-18T21:22:32.284Z,76.90
2018-04-18T21:25:07.356Z,77.00
2018-04-18T21:27:43.004Z,78.10
2018-04-18T21:30:18.431Z,78.00
2018-04-18T21:32:53.197Z,78.60
2018-04-18T21:38:09.885Z,79.20
2018-04-18T21:40:45.411Z,79.10
2018-04-18T21:43:20.879Z,79.50
2018-04-18T21:45:56.732Z,79.50
2018-04-18T21:48:32.892Z,79.60
2018-04-18T21:51:08.337Z,79.60
2018-04-18T21:53:43.995Z,79.80
2018-04-18T21:58:59.530Z,80.50
2018-04-18T22:01:34.831Z,80.80
2018-04-18T22:04:10.477Z,80.80
2018-04-18T22:06:45.816Z,80.80
2018-04-18T22:09:20.851Z,81.00
2018-04-18T22:11:56.094Z,80.80
2018-04-18T22:14:30.966Z,81.10
2018-04-18T22:17:07.749Z,81.40
2018-04-18T22:19:43.982Z,81.20
2018-04-18T22:22:19.767Z,81.10
2018-04-18T22:24:55.116Z,81.30
2018-04-18T22:27:31.727Z,81.30
2018-04-18T22:30:07.380Z,80.80
2018-04-18T22:32:42.855Z,80.70
2018-04-18T22:35:17.863Z,79.80
2018-04-18T22:37:53.417Z,79.20
2018-04-18T22:40:29.567Z,78.00
2018-04-18T22:43:06.446Z,77.90
2018-04-18T22:45:41.278Z,77.80
2018-04-18T22:48:17.539Z,77.90
2018-04-18T22:50:52.578Z,77.90
2018-04-18T22:53:28.437Z,78.70
2018-04-18T22:56:03.679Z,79.10
2018-04-18T22:58:39.526Z,79.80
2018-04-18T23:01:14.360Z,82.80
2018-04-18T23:03:49.392Z,88.10
2018-04-18T23:06:24.223Z,91.50
2018-04-18T23:08:59.054Z,93.10
2018-04-18T23:11:34.089Z,94.80
2018-04-18T23:14:09.333Z,95.80
2018-04-18T23:16:44.365Z,96.40
2018-04-18T23:19:19.196Z,96.50
2018-04-18T23:21:54.232Z,96.90
2018-04-18T23:24:29.465Z,96.90
2018-04-18T23:27:04.302Z,96.70
2018-04-18T23:29:39.546Z,96.50
2018-04-18T23:32:14.572Z,95.40
2018-04-18T23:34:49.809Z,95.20
2018-04-18T23:37:24.435Z,95.30
2018-04-18T23:39:59.677Z,95.50
2018-04-18T23:42:34.513Z,95.70
2018-04-18T23:45:09.543Z,95.60
2018-04-18T23:47:44.581Z,95.60
2018-04-18T23:50:19.611Z,95.60
2018-04-18T23:52:55.771Z,95.20
2018-04-18T23:55:31.017Z,95.20
2018-04-18T23:58:06.456Z,95.10
